Time;durP1;ratioP1;P1;durP2;ratioP2;P2;SDS_P1;SDS_P2;PMS_P1;PMS_P2;Temp;Humidity;BMP_temperature;BMP_pressure;BME280_temperature;BME280_humidity;BME280_pressure;Samples;Min_cycle;Max_cycle;Signal;HPM_P1;HPM_P2
2022/01/03 00:01:24;;;;;;;;;58.00;47.00;;;;;7.17;89.14;100228.72;5075362;28;45451;-66
2022/01/03 00:03:49;;;;;;;;;62.00;49.33;;;;;7.15;89.41;100228.72;5068556;27;45450;-65
2022/01/03 00:06:19;;;;;;;;;60.33;47.67;;;;;7.15;89.41;100222.59;5078220;27;45832;-66
2022/01/03 00:08:44;;;;;;;;;57.33;46.33;;;;;7.17;89.53;100226.09;5075274;28;45425;-66
2022/01/03 00:11:15;;;;;;;;;58.33;45.67;;;;;7.20;89.57;100229.56;5075193;28;45445;-66
2022/01/03 00:13:45;;;;;;;;;55.33;45.67;;;;;7.22;89.66;100229.53;5075325;28;45437;-66
2022/01/03 00:16:11;;;;;;;;;57.67;46.67;;;;;7.24;89.59;100218.13;5074969;28;45510;-66
2022/01/03 00:18:37;;;;;;;;;56.67;47.33;;;;;7.26;89.17;100210.25;5073217;28;45446;-65
2022/01/03 00:21:09;;;;;;;;;62.67;49.67;;;;;7.25;88.68;100219.88;5074238;28;45778;-65
2022/01/03 00:23:37;;;;;;;;;60.33;50.00;;;;;7.26;88.86;100223.38;5073457;28;45524;-66
2022/01/03 00:26:06;;;;;;;;;58.00;47.67;;;;;7.28;88.57;100217.22;5075262;28;45428;-66
2022/01/03 00:28:38;;;;;;;;;21.67;12.00;;;;;7.28;88.74;100195.38;5074692;28;45424;-66
2022/01/03 00:31:05;;;;;;;;;63.67;50.00;;;;;7.29;88.37;100199.75;5074784;28;45613;-66
2022/01/03 00:33:31;;;;;;;;;57.67;46.00;;;;;7.30;88.15;100228.59;5069895;28;45363;-66
2022/01/03 00:35:59;;;;;;;;;56.00;47.00;;;;;7.28;88.21;100225.09;5073278;28;45361;-66
2022/01/03 00:38:28;;;;;;;;;61.00;47.33;;;;;7.26;88.31;100229.50;5072760;28;45488;-66
2022/01/03 00:40:54;;;;;;;;;55.33;44.67;;;;;7.26;88.28;100229.50;5075066;28;45517;-66
2022/01/03 00:43:21;;;;;;;;;58.00;46.67;;;;;7.26;88.40;100218.13;5074422;28;45665;-66
2022/01/03 00:45:46;;;;;;;;;61.00;49.00;;;;;7.25;88.19;100201.53;5074525;28;45358;-66
2022/01/03 00:48:12;;;;;;;;;52.33;43.33;;;;;7.26;88.31;100192.78;5073639;28;45597;-66
2022/01/03 00:50:39;;;;;;;;;62.00;48.67;;;;;7.25;88.35;100188.41;5074340;28;46357;-66
2022/01/03 00:53:05;;;;;;;;;59.00;45.00;;;;;7.26;88.59;100189.28;5074274;27;45396;-65
2022/01/03 00:55:31;;;;;;;;;61.67;47.00;;;;;7.26;88.51;100179.66;5073648;28;45758;-66
2022/01/03 00:58:08;;;;;;;;;54.00;42.00;;;;;7.27;88.72;100177.91;5073914;28;45391;-66
2022/01/03 01:00:40;;;;;;;;;52.67;43.00;;;;;7.27;88.81;100176.16;5074139;28;45411;-66
2022/01/03 01:03:10;;;;;;;;;52.33;42.00;;;;;7.28;88.97;100185.75;5064366;28;45418;-66
2022/01/03 01:05:40;;;;;;;;;50.33;42.33;;;;;7.28;88.90;100177.88;5074989;28;45477;-66
2022/01/03 01:08:06;;;;;;;;;60.00;46.00;;;;;7.30;89.00;100180.50;5074257;28;45558;-66
2022/01/03 01:10:34;;;;;;;;;54.33;44.33;;;;;7.30;88.68;100176.13;5074258;28;46362;-66
2022/01/03 01:13:02;;;;;;;;;53.00;44.00;;;;;7.31;88.89;100177.88;5073863;28;45356;-66
2022/01/03 01:15:28;;;;;;;;;57.00;46.33;;;;;7.31;88.75;100190.09;5074573;28;45410;-66
2022/01/03 01:17:56;;;;;;;;;56.00;45.67;;;;;7.29;88.53;100182.25;5073597;28;45521;-66
2022/01/03 01:20:23;;;;;;;;;58.00;47.67;;;;;7.29;88.55;100165.66;5074111;28;46032;-66
2022/01/03 01:22:49;;;;;;;;;59.67;45.00;;;;;7.26;88.73;100150.81;5072664;28;45401;-66
2022/01/03 01:27:52;;;;;;;;;52.00;42.00;;;;;7.23;88.83;100145.59;5074187;28;45654;-66
2022/01/03 01:30:24;;;;;;;;;52.33;45.00;;;;;7.23;88.75;100153.44;5074330;28;45397;-66
2022/01/03 01:33:01;;;;;;;;;61.67;49.00;;;;;7.22;88.78;100156.97;5076588;28;45453;-66
2022/01/03 01:35:35;;;;;;;;;57.00;46.00;;;;;7.21;88.53;100159.59;5073836;28;45533;-65
2022/01/03 01:38:02;;;;;;;;;59.00;46.67;;;;;7.20;88.66;100156.13;5075884;28;45425;-66
2022/01/03 01:40:28;;;;;;;;;59.00;46.67;;;;;7.19;88.53;100148.28;5077604;28;46751;-66
2022/01/03 01:42:56;;;;;;;;;57.67;46.00;;;;;7.15;88.26;100133.44;5077342;28;45388;-66
2022/01/03 01:45:27;;;;;;;;;58.00;45.67;;;;;7.13;88.59;100132.59;5078549;28;45372;-66
2022/01/03 01:47:57;;;;;;;;;58.00;46.67;;;;;7.11;88.49;100124.75;5077225;28;45352;-66
2022/01/03 01:50:26;;;;;;;;;60.67;48.67;;;;;7.11;88.70;100129.97;5077628;27;45454;-66
2022/01/03 01:52:54;;;;;;;;;58.67;49.00;;;;;7.10;88.78;100138.72;5077400;28;45337;-66
2022/01/03 01:55:19;;;;;;;;;56.33;45.00;;;;;7.10;88.16;100149.22;5069545;28;45298;-66
2022/01/03 01:58:04;;;;;;;;;66.33;52.33;;;;;7.09;88.47;100144.00;5076250;28;45373;-65
2022/01/03 02:00:32;;;;;;;;;61.00;48.33;;;;;7.06;88.57;100125.66;5071067;28;45510;-65
2022/01/03 02:03:47;;;;;;;;;67.00;51.33;;;;;7.04;88.47;100109.09;5066365;27;45368;-66
2022/01/03 02:06:21;;;;;;;;;60.67;48.67;;;;;7.00;88.40;100098.63;5075746;27;45419;-66
2022/01/03 02:09:03;;;;;;;;;57.33;47.33;;;;;6.96;88.64;100099.53;5077380;28;45681;-66
2022/01/03 02:11:38;;;;;;;;;63.00;50.00;;;;;6.93;88.49;100110.06;5068094;28;45256;-66
2022/01/03 02:14:04;;;;;;;;;64.00;50.67;;;;;6.89;88.91;100103.09;5077248;28;45379;-66
2022/01/03 02:16:32;;;;;;;;;69.00;51.33;;;;;6.86;89.01;100105.78;5077883;27;45409;-66
2022/01/03 02:18:57;;;;;;;;;59.67;48.33;;;;;6.85;88.98;100106.66;5076858;28;45500;-66
2022/01/03 02:21:23;;;;;;;;;63.33;51.00;;;;;6.86;89.25;100104.91;5077509;28;46049;-66
2022/01/03 02:23:48;;;;;;;;;55.00;45.00;;;;;6.87;89.18;100117.13;5077296;28;45468;-65
2022/01/03 02:26:14;;;;;;;;;60.67;49.00;;;;;6.86;89.11;100105.78;5077618;28;45416;-65
2022/01/03 02:28:39;;;;;;;;;61.33;47.00;;;;;6.87;89.13;100097.00;5077083;28;45389;-65
2022/01/03 02:31:05;;;;;;;;;62.00;49.00;;;;;6.87;89.17;100089.13;5077442;28;46958;-65
2022/01/03 02:33:31;;;;;;;;;57.33;45.33;;;;;6.89;88.94;100082.13;5076504;28;45466;-65
2022/01/03 02:35:57;;;;;;;;;59.67;48.67;;;;;6.90;89.06;100083.88;5077835;28;45435;-66
2022/01/03 02:38:22;;;;;;;;;58.00;47.00;;;;;6.90;89.05;100090.88;5076744;28;45437;-66
2022/01/03 02:40:48;;;;;;;;;61.00;50.33;;;;;6.89;88.73;100100.47;5077219;27;45477;-66
2022/01/03 02:43:14;;;;;;;;;66.00;51.00;;;;;6.89;88.63;100099.59;5076768;28;45401;-65
2022/01/03 02:45:39;;;;;;;;;61.67;49.33;;;;;6.87;88.78;100110.09;5077337;27;45865;-65
2022/01/03 02:48:07;;;;;;;;;67.33;50.00;;;;;6.86;89.03;100110.16;5076422;27;45424;-66
2022/01/03 02:50:35;;;;;;;;;62.00;49.67;;;;;6.84;89.06;100115.41;5077229;28;45419;-66
2022/01/03 02:53:00;;;;;;;;;62.33;50.33;;;;;6.84;88.92;100112.78;5076230;28;45296;-65
2022/01/03 02:55:28;;;;;;;;;63.33;50.67;;;;;6.80;89.12;100107.56;5076736;28;45351;-66
2022/01/03 02:57:56;;;;;;;;;61.67;49.00;;;;;6.79;89.16;100100.59;5076722;27;45485;-66
2022/01/03 03:00:28;;;;;;;;;70.00;52.00;;;;;6.78;89.12;100094.47;5069437;28;46177;-66
2022/01/03 03:02:54;;;;;;;;;67.67;51.00;;;;;6.78;89.13;100101.47;5064687;28;45579;-66
2022/01/03 03:05:20;;;;;;;;;66.00;50.67;;;;;6.75;89.17;100107.59;5077113;28;45407;-66
2022/01/03 03:07:47;;;;;;;;;55.00;47.00;;;;;6.72;89.34;100106.75;5076738;28;45379;-66
2022/01/03 03:10:17;;;;;;;;;64.00;51.00;;;;;6.71;89.62;100108.50;5076440;28;45501;-66
2022/01/03 03:12:44;;;;;;;;;65.00;52.00;;;;;6.70;89.50;100109.41;5076571;28;45459;-66
2022/01/03 03:15:11;;;;;;;;;64.00;50.67;;;;;6.68;89.72;100108.56;5076634;28;45481;-66
2022/01/03 03:17:39;;;;;;;;;62.00;51.00;;;;;6.69;89.75;100119.91;5075982;28;45388;-66
2022/01/03 03:20:16;;;;;;;;;66.33;50.67;;;;;6.68;89.62;100121.66;5076652;28;45473;-66
2022/01/03 03:22:42;;;;;;;;;66.67;52.67;;;;;6.67;89.88;100122.53;5076276;28;45443;-67
2022/01/03 03:25:09;;;;;;;;;65.00;50.67;;;;;6.64;89.69;100128.66;5075525;28;45404;-66
2022/01/03 03:27:43;;;;;;;;;66.33;51.67;;;;;6.59;90.10;100125.19;5076235;28;45497;-66
2022/01/03 03:30:13;;;;;;;;;58.67;48.67;;;;;6.55;90.19;100128.72;5076565;28;45399;-66
2022/01/03 03:32:40;;;;;;;;;61.00;49.67;;;;;6.53;89.95;100111.31;5075815;28;45566;-66
2022/01/03 03:35:05;;;;;;;;;59.67;47.67;;;;;6.52;90.17;100120.03;5076622;27;45423;-66
2022/01/03 03:37:31;;;;;;;;;66.67;51.67;;;;;6.51;90.51;100116.56;5076143;28;45510;-66
2022/01/03 03:39:56;;;;;;;;;70.33;52.67;;;;;6.52;90.10;100109.56;5076448;27;46304;-66
2022/01/03 03:42:22;;;;;;;;;58.67;47.33;;;;;6.50;90.41;100104.34;5076117;28;45347;-66
2022/01/03 03:44:47;;;;;;;;;57.33;46.67;;;;;6.49;90.28;100097.34;5074189;28;45460;-66
2022/01/03 03:47:14;;;;;;;;;67.00;52.00;;;;;6.51;90.77;100086.88;5075912;27;45479;-66
2022/01/03 03:49:39;;;;;;;;;68.67;51.00;;;;;6.52;90.48;100084.25;5075695;28;45346;-65
2022/01/03 03:52:06;;;;;;;;;61.33;51.00;;;;;6.53;90.43;100093.84;5075276;28;45484;-66
2022/01/03 03:54:33;;;;;;;;;61.67;51.00;;;;;6.51;90.44;100113.94;5073502;28;45411;-66
2022/01/03 03:56:59;;;;;;;;;66.33;49.33;;;;;6.51;90.27;100113.94;5075800;28;45570;-66
2022/01/03 03:59:25;;;;;;;;;66.00;52.00;;;;;6.51;90.23;100102.59;5075908;27;47057;-66
2022/01/03 04:01:51;;;;;;;;;63.33;51.67;;;;;6.52;90.43;100099.97;5075640;28;45490;-66
2022/01/03 04:04:17;;;;;;;;;66.33;51.67;;;;;6.51;89.66;100106.06;5075466;28;45456;-66
2022/01/03 04:06:43;;;;;;;;;60.67;49.33;;;;;6.45;89.56;100103.50;5076154;28;45400;-66
2022/01/03 04:09:08;;;;;;;;;65.00;52.33;;;;;6.40;90.17;100089.56;5075072;28;46037;-65
2022/01/03 04:11:34;;;;;;;;;61.33;48.67;;;;;6.40;90.24;100086.06;5075941;28;45388;-65
2022/01/03 04:13:59;;;;;;;;;67.33;53.00;;;;;6.41;90.51;100075.56;5075606;28;45370;-66
2022/01/03 04:16:25;;;;;;;;;63.33;51.00;;;;;6.43;90.55;100075.56;5076128;28;45337;-66
2022/01/03 04:18:50;;;;;;;;;67.33;52.67;;;;;6.45;90.39;100082.53;5074926;27;45473;-66
2022/01/03 04:21:15;;;;;;;;;67.33;52.67;;;;;6.46;90.50;100075.56;5075904;28;45380;-66
2022/01/03 04:23:41;;;;;;;;;67.33;52.33;;;;;6.45;90.16;100077.31;5075398;28;45321;-66
2022/01/03 04:26:06;;;;;;;;;60.33;48.33;;;;;6.46;90.21;100070.31;5075586;28;45524;-66
2022/01/03 04:28:32;;;;;;;;;67.00;52.33;;;;;6.45;90.54;100050.25;5075095;28;46197;-66
2022/01/03 04:30:57;;;;;;;;;65.00;51.33;;;;;6.45;90.36;100031.91;5075768;27;45325;-66
2022/01/03 04:33:23;;;;;;;;;61.33;49.00;;;;;6.46;90.53;100036.25;5074970;28;45457;-66
2022/01/03 04:35:48;;;;;;;;;67.00;52.00;;;;;6.47;90.39;100067.69;5075613;27;45233;-66
2022/01/03 04:38:14;;;;;;;;;62.33;49.00;;;;;6.46;90.18;100083.41;5075058;28;45372;-66
2022/01/03 04:40:40;;;;;;;;;62.00;48.33;;;;;6.40;89.94;100081.69;5075331;27;45377;-66
2022/01/03 04:43:07;;;;;;;;;60.33;49.67;;;;;6.40;90.36;100062.50;5075026;28;45424;-66
2022/01/03 04:45:32;;;;;;;;;67.00;49.00;;;;;6.38;90.51;100045.91;5075457;28;45470;-66
2022/01/03 04:47:57;;;;;;;;;61.00;49.67;;;;;6.38;90.52;100041.56;5074410;27;46071;-66
2022/01/03 04:50:23;;;;;;;;;67.00;48.33;;;;;6.40;90.58;100060.75;5075791;27;45364;-66
2022/01/03 04:52:48;;;;;;;;;61.00;50.00;;;;;6.42;90.49;100061.59;5074961;28;45413;-66
2022/01/03 04:55:14;;;;;;;;;69.33;52.33;;;;;6.45;90.37;100045.00;5075442;28;45422;-66
2022/01/03 04:57:39;;;;;;;;;62.33;50.33;;;;;6.46;90.21;100031.91;5074816;27;45475;-66
2022/01/03 05:00:07;;;;;;;;;68.00;52.33;;;;;6.44;89.94;100038.88;5075331;28;45274;-66
2022/01/03 05:02:33;;;;;;;;;60.67;47.33;;;;;6.44;90.27;100053.72;5073827;27;45512;-66
2022/01/03 05:04:59;;;;;;;;;55.67;45.00;;;;;6.45;90.06;100053.72;5074885;27;45403;-66
2022/01/03 05:07:24;;;;;;;;;63.00;52.33;;;;;6.45;89.86;100064.19;5074725;27;46023;-66
2022/01/03 05:09:49;;;;;;;;;65.33;52.67;;;;;6.45;89.89;100055.47;5075235;28;45341;-66
2022/01/03 05:12:16;;;;;;;;;57.67;45.33;;;;;6.45;90.42;100045.00;5074738;28;45292;-66
2022/01/03 05:14:42;;;;;;;;;61.67;51.00;;;;;6.46;90.11;100025.78;5074832;28;45354;-66
2022/01/03 05:17:08;;;;;;;;;65.67;49.00;;;;;6.44;89.86;100027.53;5073869;27;46449;-66
2022/01/03 05:19:33;;;;;;;;;62.67;46.67;;;;;6.41;89.96;100041.53;5074717;28;45383;-66
2022/01/03 05:21:59;;;;;;;;;59.33;48.00;;;;;6.39;89.86;100031.94;5074659;28;45709;-66
2022/01/03 05:24:24;;;;;;;;;59.33;49.00;;;;;6.38;90.08;100040.69;5074718;27;45714;-66
2022/01/03 05:26:49;;;;;;;;;65.67;50.67;;;;;6.34;90.26;100058.19;5074704;28;46521;-66
2022/01/03 05:29:15;;;;;;;;;63.33;49.67;;;;;6.33;90.10;100051.22;5074122;28;45378;-66
2022/01/03 05:31:41;;;;;;;;;69.33;53.00;;;;;6.30;90.07;100038.16;5074823;28;45356;-65
2022/01/03 05:34:06;;;;;;;;;70.33;51.00;;;;;6.29;90.28;100028.56;5073705;28;45383;-66
2022/01/03 05:36:32;;;;;;;;;64.33;49.67;;;;;6.27;90.37;100039.03;5074745;28;45398;-66
2022/01/03 05:38:57;;;;;;;;;63.33;50.67;;;;;6.29;90.61;100052.13;5073984;28;45428;-66
2022/01/03 05:41:23;;;;;;;;;66.67;52.00;;;;;6.29;90.31;100054.72;5074364;28;45544;-66
2022/01/03 05:43:49;;;;;;;;;66.33;51.67;;;;;6.28;90.45;100038.16;5074247;28;45385;-66
2022/01/03 05:46:16;;;;;;;;;64.67;50.67;;;;;6.31;90.45;100045.13;5065885;28;46441;-66
2022/01/03 05:48:41;;;;;;;;;66.67;52.33;;;;;6.32;90.59;100052.09;5073601;28;45443;-66
2022/01/03 05:51:07;;;;;;;;;66.33;52.33;;;;;6.30;90.43;100053.84;5074274;28;45484;-66
2022/01/03 05:53:32;;;;;;;;;65.67;51.33;;;;;6.29;90.62;100057.34;5071984;28;45453;-66
2022/01/03 05:56:00;;;;;;;;;60.00;49.33;;;;;6.28;90.60;100058.22;5074246;28;46492;-66
2022/01/03 05:58:25;;;;;;;;;68.00;52.33;;;;;6.25;90.26;100064.34;5073492;28;45548;-66
2022/01/03 06:00:51;;;;;;;;;66.00;51.67;;;;;6.16;90.23;100055.72;5073172;28;45511;-65
2022/01/03 06:03:22;;;;;;;;;70.00;53.33;;;;;6.13;90.53;100051.38;5064557;28;45394;-66
2022/01/03 06:08:23;;;;;;;;;80.00;56.67;;;;;6.03;90.52;100069.78;5073247;28;45446;-66
2022/01/03 06:10:49;;;;;;;;;72.67;55.00;;;;;5.94;91.12;100071.56;5073549;28;45332;-66
2022/01/03 06:13:15;;;;;;;;;74.00;54.67;;;;;5.88;91.26;100054.97;5073789;28;45186;-66
2022/01/03 06:15:41;;;;;;;;;58.00;47.00;;;;;5.84;91.78;100046.31;5073602;28;46067;-66
2022/01/03 06:18:10;;;;;;;;;65.00;48.67;;;;;5.83;91.91;100054.16;5076363;28;45350;-65
2022/01/03 06:20:41;;;;;;;;;69.67;54.00;;;;;5.83;92.09;100064.63;5077174;28;45456;-65
2022/01/03 06:23:08;;;;;;;;;71.67;52.00;;;;;5.83;92.54;100069.84;5076506;28;45484;-66
2022/01/03 06:25:34;;;;;;;;;64.33;49.00;;;;;5.82;92.58;100050.66;5076973;28;46735;-66
2022/01/03 06:27:59;;;;;;;;;73.33;54.00;;;;;5.78;92.39;100046.31;5076535;28;45424;-66
2022/01/03 06:30:25;;;;;;;;;72.00;53.67;;;;;5.77;92.70;100075.97;5077330;28;45459;-66
2022/01/03 06:32:50;;;;;;;;;76.00;55.67;;;;;5.72;92.61;100079.50;5076572;28;45362;-66
2022/01/03 06:35:16;;;;;;;;;71.33;54.33;;;;;5.70;93.15;100089.97;5076594;27;46491;-66
2022/01/03 06:37:41;;;;;;;;;79.33;56.67;;;;;5.65;93.46;100099.59;5076361;28;45456;-67
2022/01/03 06:40:07;;;;;;;;;75.00;53.00;;;;;5.65;93.36;100083.91;5076955;28;45798;-66
2022/01/03 06:42:33;;;;;;;;;73.33;55.00;;;;;5.66;93.69;100056.00;5076625;28;45439;-66
2022/01/03 06:44:59;;;;;;;;;74.67;53.33;;;;;5.69;93.64;100033.31;5076176;28;45384;-65
2022/01/03 06:47:25;;;;;;;;;69.67;54.00;;;;;5.75;93.54;100061.16;5075192;27;45517;-66
2022/01/03 06:49:50;;;;;;;;;71.67;54.00;;;;;5.83;93.73;100090.78;5108526;27;45422;-66
2022/01/03 06:52:16;;;;;;;;;75.67;56.00;;;;;5.89;93.60;100096.00;5076023;28;45533;-66
2022/01/03 06:54:42;;;;;;;;;68.00;53.00;;;;;5.94;93.41;100078.53;5075331;28;46496;-66
2022/01/03 06:57:08;;;;;;;;;68.00;49.00;;;;;5.98;92.88;100068.94;5075752;28;45567;-66
2022/01/03 06:59:35;;;;;;;;;66.00;52.00;;;;;5.99;92.71;100054.97;5076510;28;45253;-66
2022/01/03 07:02:00;;;;;;;;;62.67;49.67;;;;;5.99;92.68;100066.31;5066947;28;45570;-67
2022/01/03 07:04:26;;;;;;;;;62.00;49.33;;;;;6.01;92.54;100061.94;5068363;28;46740;-66
2022/01/03 07:06:52;;;;;;;;;64.33;50.33;;;;;6.03;92.65;100075.00;5075278;28;45859;-66
2022/01/03 07:09:17;;;;;;;;;61.00;46.67;;;;;6.06;92.37;100086.31;5075530;28;45388;-66
2022/01/03 07:11:43;;;;;;;;;61.00;47.33;;;;;6.07;92.06;100095.03;5068098;28;45634;-65
2022/01/03 07:19:55;;;;;;;;;66.00;50.67;;;;;5.96;91.67;100092.50;5074839;28;45368;-65
2022/01/03 07:22:21;;;;;;;;;69.00;52.33;;;;;5.87;91.89;100090.75;5059669;28;45637;-65
2022/01/03 07:24:47;;;;;;;;;67.00;52.00;;;;;5.84;92.51;100077.69;5079487;27;45441;-66
2022/01/03 07:27:13;;;;;;;;;64.00;50.33;;;;;5.87;92.57;100072.44;5074851;27;45356;-66
2022/01/03 07:29:40;;;;;;;;;74.33;52.33;;;;;5.92;92.59;100086.41;5075285;27;45316;-66
2022/01/03 07:32:07;;;;;;;;;69.67;50.67;;;;;5.98;92.73;100076.78;5072462;28;45582;-65
2022/01/03 07:34:32;;;;;;;;;64.00;51.67;;;;;6.02;92.64;100062.81;5079778;27;45439;-65
2022/01/03 07:36:58;;;;;;;;;68.00;54.00;;;;;6.07;92.42;100066.22;5073772;28;45435;-65
2022/01/03 07:39:23;;;;;;;;;68.67;51.67;;;;;6.10;92.44;100077.56;5077713;27;45425;-65
2022/01/03 07:41:49;;;;;;;;;68.33;51.00;;;;;6.13;92.27;100071.44;5073874;27;45646;-65
2022/01/03 07:44:15;;;;;;;;;56.00;47.00;;;;;6.18;92.03;100083.63;5070685;28;46797;-65
2022/01/03 07:46:40;;;;;;;;;64.67;50.67;;;;;6.19;91.62;100077.50;5078847;27;45455;-66
2022/01/03 07:49:06;;;;;;;;;63.67;51.00;;;;;6.20;91.41;100073.97;5074282;28;45485;-65
2022/01/03 07:51:31;;;;;;;;;59.00;46.00;;;;;6.20;91.26;100068.75;5075585;28;45432;-65
2022/01/03 07:53:57;;;;;;;;;58.33;46.33;;;;;6.21;90.94;100080.97;5075283;28;45568;-69
2022/01/03 07:56:23;;;;;;;;;66.00;52.33;;;;;6.22;91.12;100082.69;5075183;28;45428;-67
2022/01/03 07:58:49;;;;;;;;;56.00;46.67;;;;;6.21;90.93;100069.63;5073788;28;45427;-68
2022/01/03 08:01:15;;;;;;;;;62.33;47.67;;;;;6.21;91.10;100053.91;5074762;28;45616;-70
2022/01/03 08:03:41;;;;;;;;;67.00;48.00;;;;;6.24;91.29;100062.63;5061760;28;46208;-69
2022/01/03 08:06:08;;;;;;;;;69.00;53.33;;;;;6.27;91.08;100067.84;5072103;28;45411;-69
2022/01/03 08:08:35;;;;;;;;;62.33;50.00;;;;;6.29;90.80;100071.31;5066737;28;45508;-69
2022/01/03 08:11:00;;;;;;;;;70.33;51.33;;;;;6.35;90.73;100093.09;5049664;27;45450;-68
2022/01/03 08:13:26;;;;;;;;;64.33;48.67;;;;;6.39;90.70;100084.31;5072558;28;45354;-68
2022/01/03 08:15:51;;;;;;;;;62.00;48.00;;;;;6.41;90.44;100049.38;5059624;28;45449;-68
2022/01/03 08:18:17;;;;;;;;;56.67;45.67;;;;;6.42;90.00;100048.50;5065397;28;45518;-69
2022/01/03 08:20:42;;;;;;;;;58.67;43.67;;;;;6.42;89.98;100058.13;5075188;28;45359;-68
2022/01/03 08:23:07;;;;;;;;;56.00;46.00;;;;;6.44;90.04;100067.69;5075282;28;45564;-69
2022/01/03 08:25:37;;;;;;;;;55.00;45.33;;;;;6.47;89.82;100075.53;5075494;28;45474;-70
2022/01/03 08:28:09;;;;;;;;;53.00;39.33;;;;;6.50;89.07;100078.13;5064303;28;45442;-69
2022/01/03 08:30:36;;;;;;;;;62.00;46.00;;;;;6.50;89.25;100083.38;5075264;28;45475;-70
2022/01/03 08:33:04;;;;;;;;;57.67;46.67;;;;;6.48;89.05;100077.28;5074602;28;46151;-69
2022/01/03 08:35:30;;;;;;;;;64.00;47.67;;;;;6.47;89.03;100075.53;5074067;28;45491;-70
2022/01/03 08:37:56;;;;;;;;;55.67;45.33;;;;;6.44;89.05;100085.16;5074677;27;45564;-68
2022/01/03 08:40:21;;;;;;;;;61.33;46.67;;;;;6.44;89.19;100079.94;5074662;28;45270;-68
2022/01/03 08:42:47;;;;;;;;;63.33;50.67;;;;;6.44;89.57;100088.66;5073838;28;45407;-69
2022/01/03 08:45:13;;;;;;;;;54.67;45.00;;;;;6.47;89.53;100086.00;5075071;28;45340;-69
2022/01/03 08:47:39;;;;;;;;;59.33;46.33;;;;;6.52;89.41;100088.59;5074198;27;45435;-69
2022/01/03 08:50:06;;;;;;;;;62.00;49.33;;;;;6.58;89.46;100083.28;5074967;28;45436;-68
2022/01/03 08:52:31;;;;;;;;;63.00;50.33;;;;;6.61;89.08;100089.38;5074138;28;45711;-69
2022/01/03 08:54:57;;;;;;;;;65.00;48.67;;;;;6.67;89.16;100091.09;5071006;28;45459;-68
2022/01/03 08:57:23;;;;;;;;;62.00;47.00;;;;;6.71;89.08;100090.16;5072300;28;45360;-68
2022/01/03 08:59:50;;;;;;;;;65.67;51.33;;;;;6.77;89.42;100084.00;5064907;28;45541;-69
2022/01/03 09:02:18;;;;;;;;;73.00;55.33;;;;;6.81;89.19;100078.72;5071456;27;45553;-68
2022/01/03 09:04:45;;;;;;;;;77.67;55.33;;;;;6.88;88.95;100085.63;5072147;28;45493;-69
2022/01/03 09:07:11;;;;;;;;;67.67;53.00;;;;;6.93;88.66;100077.72;5071900;28;45298;-69
2022/01/03 09:09:37;;;;;;;;;73.67;53.00;;;;;6.95;88.43;100082.06;5071839;28;45396;-68
2022/01/03 09:12:03;;;;;;;;;63.33;50.00;;;;;7.00;88.20;100085.53;5072981;28;46227;-69
2022/01/03 09:14:29;;;;;;;;;66.33;51.00;;;;;7.04;88.05;100081.09;5073636;28;45438;-68
2022/01/03 09:16:54;;;;;;;;;63.67;50.33;;;;;7.09;87.74;100071.44;5073792;27;45354;-68
2022/01/03 09:19:20;;;;;;;;;67.67;51.33;;;;;7.15;87.62;100066.16;5071779;28;45636;-68
2022/01/03 09:21:46;;;;;;;;;61.67;48.00;;;;;7.20;87.39;100063.47;5069509;27;46628;-68
2022/01/03 09:29:27;;;;;;;;;63.33;49.00;;;;;7.21;86.33;100065.19;5071596;28;45413;-68
2022/01/03 09:31:53;;;;;;;;;66.00;49.00;;;;;7.21;86.62;100068.69;5069514;28;46014;-71
2022/01/03 09:34:18;;;;;;;;;59.67;46.33;;;;;7.22;86.64;100062.53;5073000;28;45432;-69
2022/01/03 09:36:44;;;;;;;;;61.33;48.33;;;;;7.24;86.87;100052.91;5074069;28;45460;-69
2022/01/03 09:39:09;;;;;;;;;66.33;48.00;;;;;7.28;86.66;100051.13;5073587;28;45385;-69
2022/01/03 09:41:42;;;;;;;;;57.67;46.00;;;;;7.32;86.47;100048.47;5074091;28;45447;-69
2022/01/03 09:44:13;;;;;;;;;57.67;45.00;;;;;7.36;86.48;100054.53;5070002;28;45419;-69
2022/01/03 09:46:42;;;;;;;;;64.00;49.67;;;;;7.40;86.09;100044.84;5070997;28;45434;-68
2022/01/03 09:49:10;;;;;;;;;61.33;47.67;;;;;7.44;85.81;100042.19;5072847;28;45493;-68
2022/01/03 09:51:37;;;;;;;;;65.67;47.33;;;;;7.46;85.76;100029.91;5075179;28;45430;-68
2022/01/03 09:54:05;;;;;;;;;62.67;48.33;;;;;7.46;85.38;100035.16;5073501;28;45650;-68
2022/01/03 09:56:33;;;;;;;;;67.00;51.67;;;;;7.48;85.75;100038.63;5065909;28;45342;-68
2022/01/03 09:59:00;;;;;;;;;58.67;46.33;;;;;7.51;85.58;100040.34;5076192;28;45516;-69
2022/01/03 10:01:27;;;;;;;;;58.33;44.67;;;;;7.55;85.15;100047.28;5076203;28;45368;-68
2022/01/03 10:03:53;;;;;;;;;54.67;44.33;;;;;7.59;85.30;100046.34;5082276;27;45455;-68
2022/01/03 10:06:20;;;;;;;;;53.67;43.33;;;;;7.63;85.38;100048.06;5076027;28;45329;-68
2022/01/03 10:08:46;;;;;;;;;57.67;45.00;;;;;7.60;85.30;100042.84;5076749;28;45345;-68
2022/01/03 10:11:12;;;;;;;;;60.00;46.00;;;;;7.58;85.05;100032.38;5076845;28;46137;-68
2022/01/03 10:13:38;;;;;;;;;52.67;43.33;;;;;7.60;85.36;100038.47;5076594;28;45841;-68
2022/01/03 10:16:04;;;;;;;;;61.67;48.00;;;;;7.64;85.34;100045.41;5077726;27;45461;-68
2022/01/03 10:18:31;;;;;;;;;63.67;48.67;;;;;7.69;85.37;100042.75;5076445;28;45390;-68
2022/01/03 10:20:57;;;;;;;;;57.00;47.00;;;;;7.75;85.09;100047.03;5077237;28;45457;-68
2022/01/03 10:23:23;;;;;;;;;60.67;49.00;;;;;7.73;85.07;100033.91;5074082;28;45436;-69
2022/01/03 10:25:50;;;;;;;;;62.33;46.00;;;;;7.72;85.20;100026.94;5076856;28;45547;-67
2022/01/03 10:28:27;;;;;;;;;59.33;46.33;;;;;7.72;85.19;100019.06;5075791;28;45527;-68
2022/01/03 10:30:52;;;;;;;;;57.67;48.33;;;;;7.75;85.00;100021.63;5074462;28;45713;-67
2022/01/03 10:33:21;;;;;;;;;62.67;48.67;;;;;7.80;85.26;100011.94;5071703;27;45432;-68
2022/01/03 10:35:53;;;;;;;;;59.00;47.00;;;;;7.87;85.11;100004.88;5076000;28;45474;-68
2022/01/03 10:38:43;;;;;;;;;65.33;51.33;;;;;7.96;84.74;99996.84;5069728;28;45616;-68
2022/01/03 10:41:11;;;;;;;;;63.00;49.33;;;;;8.03;84.79;99986.22;5077039;27;45420;-68
2022/01/03 10:43:37;;;;;;;;;59.67;46.67;;;;;8.11;84.53;99982.59;5076408;28;45419;-68
2022/01/03 10:46:18;;;;;;;;;58.67;45.33;;;;;8.18;84.39;99989.50;5075555;28;45457;-68
2022/01/03 10:48:44;;;;;;;;;59.33;47.00;;;;;8.23;84.32;99985.00;5075919;28;45380;-68
2022/01/03 10:51:10;;;;;;;;;63.67;49.00;;;;;8.29;84.20;99970.03;5076586;28;46339;-67
2022/01/03 10:53:41;;;;;;;;;60.00;46.67;;;;;8.35;83.86;99967.34;5075889;28;45410;-67
2022/01/03 10:56:31;;;;;;;;;65.00;50.33;;;;;8.37;83.84;99970.81;5076629;28;45285;-68
2022/01/03 10:58:59;;;;;;;;;66.33;51.00;;;;;8.42;83.58;99957.56;5073603;27;45494;-68
2022/01/03 11:01:27;;;;;;;;;59.67;46.33;;;;;8.44;83.24;99950.53;5075946;28;46596;-69
2022/01/03 11:03:54;;;;;;;;;64.33;50.00;;;;;8.42;83.20;99940.94;5075367;28;45321;-69
2022/01/03 11:11:46;;;;;;;;;67.33;50.00;;;;;8.40;83.40;99901.53;5068941;28;45782;-68
2022/01/03 11:14:30;;;;;;;;;69.67;53.00;;;;;8.40;83.31;99904.16;5075703;28;45414;-67
2022/01/03 11:16:55;;;;;;;;;65.33;50.00;;;;;8.39;83.50;99905.94;5070886;28;45528;-67
2022/01/03 11:19:42;;;;;;;;;64.67;47.00;;;;;8.42;83.22;99906.78;5072313;28;45415;-67
2022/01/03 11:22:08;;;;;;;;;62.00;50.33;;;;;8.42;83.11;99891.00;5075270;28;45505;-67
2022/01/03 11:24:47;;;;;;;;;66.00;50.67;;;;;8.44;83.33;99882.22;5071611;27;45516;-67
2022/01/03 11:27:13;;;;;;;;;62.00;50.67;;;;;8.48;83.64;99868.13;5068583;28;45291;-67
2022/01/03 11:29:40;;;;;;;;;70.33;54.00;;;;;8.54;83.72;99851.38;5071918;28;45626;-68
2022/01/03 11:32:06;;;;;;;;;69.33;51.00;;;;;8.59;83.54;99820.59;5064750;28;46575;-68
2022/01/03 11:34:32;;;;;;;;;68.33;49.00;;;;;8.64;83.41;99811.72;5074408;27;45461;-67
2022/01/03 11:36:59;;;;;;;;;68.33;50.67;;;;;8.69;83.42;99817.75;5064821;28;45418;-68
2022/01/03 11:39:28;;;;;;;;;63.33;49.00;;;;;8.72;83.15;99820.28;5075037;28;45468;-68